Time,TemperatureF,DewpointF,PressureIn,WindDirection,WindDirectionDegrees,WindSpeedMPH,WindSpeedGustMPH,Humidity,HourlyPrecipIn,Conditions,Clouds,dailyrainin,SoftwareType,DateUTC
2013-06-04 00:01:00,59.9,57.6,29.75,East,89,0.0,1.0,92,0.00,,---,0.00,VWS V14.00,2013-06-04 04:01:00,
2013-06-04 00:02:00,59.9,57.3,29.75,East,89,0.0,0.0,91,0.00,,---,0.00,VWS V14.00,2013-06-04 04:02:00,
2013-06-04 00:03:00,59.9,57.3,29.75,East,89,0.0,0.0,91,0.00,,---,0.00,VWS V14.00,2013-06-04 04:03:00,
2013-06-04 00:08:00,60.1,56.5,29.75,East,79,0.0,2.0,88,0.00,,---,0.00,VWS V14.00,2013-06-04 04:08:00,
2013-06-04 00:13:00,60.5,55.0,29.75,North,352,0.0,3.0,82,0.00,,---,0.00,VWS V14.00,2013-06-04 04:13:00,
2013-06-04 00:18:00,60.7,55.5,29.75,North,349,0.0,3.0,83,0.00,,---,0.00,VWS V14.00,2013-06-04 04:18:00,
2013-06-04 00:23:00,60.4,56.5,29.75,North,349,0.0,3.0,87,0.00,,---,0.00,VWS V14.00,2013-06-04 04:23:00,
2013-06-04 00:28:00,59.9,56.7,29.75,North,352,0.0,3.0,89,0.00,,---,0.00,VWS V14.00,2013-06-04 04:28:00,
2013-06-04 00:33:00,59.5,55.6,29.76,North,350,0.0,0.0,87,0.00,,---,0.00,VWS V14.00,2013-06-04 04:33:00,
2013-06-04 00:38:00,59.2,54.4,29.76,North,350,0.0,0.0,84,0.00,,---,0.00,VWS V14.00,2013-06-04 04:38:00,
2013-06-04 00:43:00,58.7,54.2,29.76,North,352,0.0,1.0,85,0.00,,---,0.00,VWS V14.00,2013-06-04 04:43:00,
2013-06-04 00:48:00,58.1,53.0,29.76,NW,326,0.0,2.0,83,0.00,,---,0.00,VWS V14.00,2013-06-04 04:48:00,
2013-06-04 00:53:00,57.6,51.8,29.76,NW,320,0.0,2.0,81,0.00,,---,0.00,VWS V14.00,2013-06-04 04:53:00,
2013-06-04 00:58:00,57.3,51.5,29.76,NW,313,0.0,2.0,81,0.00,,---,0.00,VWS V14.00,2013-06-04 04:58:00,
2013-06-04 01:03:00,57.0,50.9,29.76,WSW,240,0.0,0.0,80,0.00,,---,0.00,VWS V14.00,2013-06-04 05:03:00,
2013-06-04 01:08:00,56.7,51.3,29.76,WNW,288,0.0,0.0,82,0.00,,---,0.00,VWS V14.00,2013-06-04 05:08:00,
2013-06-04 01:13:00,56.5,50.4,29.76,WNW,288,0.0,0.0,80,0.00,,---,0.00,VWS V14.00,2013-06-04 05:13:00,
2013-06-04 01:18:00,56.5,51.1,29.77,WNW,302,0.0,0.0,82,0.00,,---,0.00,VWS V14.00,2013-06-04 05:18:00,
2013-06-04 01:23:00,56.2,49.8,29.77,WNW,301,0.0,0.0,79,0.00,,---,0.00,VWS V14.00,2013-06-04 05:23:00,
2013-06-04 01:28:00,55.9,49.2,29.77,WNW,296,0.0,0.0,78,0.00,,---,0.00,VWS V14.00,2013-06-04 05:28:00,
2013-06-04 01:33:00,55.6,49.5,29.78,WNW,292,0.0,0.0,80,0.00,,---,0.00,VWS V14.00,2013-06-04 05:33:00,
2013-06-04 01:38:00,55.3,49.2,29.78,WNW,291,0.0,1.0,80,0.00,,---,0.00,VWS V14.00,2013-06-04 05:38:00,
2013-06-04 01:43:00,55.1,49.4,29.78,SW,219,0.0,1.0,81,0.00,,---,0.00,VWS V14.00,2013-06-04 05:43:00,
2013-06-04 01:48:00,55.1,49.4,29.78,SW,220,0.0,1.0,81,0.00,,---,0.00,VWS V14.00,2013-06-04 05:48:00,
2013-06-04 01:53:00,55.0,48.3,29.78,SW,222,0.0,1.0,78,0.00,,---,0.00,VWS V14.00,2013-06-04 05:53:00,
2013-06-04 01:58:00,55.0,47.6,29.78,WSW,256,0.0,1.0,76,0.00,,---,0.00,VWS V14.00,2013-06-04 05:58:00,
2013-06-04 02:03:00,54.8,46.3,29.78,WSW,258,0.0,0.0,73,0.00,,---,0.00,VWS V14.00,2013-06-04 06:03:00,
2013-06-04 02:08:00,54.8,46.7,29.78,WSW,256,0.0,1.0,74,0.00,,---,0.00,VWS V14.00,2013-06-04 06:08:00,
2013-06-04 02:13:00,54.8,47.0,29.78,WSW,256,0.0,1.0,75,0.00,,---,0.00,VWS V14.00,2013-06-04 06:13:00,
2013-06-04 02:18:00,54.7,45.9,29.77,WSW,256,0.0,1.0,72,0.00,,---,0.00,VWS V14.00,2013-06-04 06:18:00,
2013-06-04 02:23:00,54.7,46.9,29.77,WSW,250,0.0,1.0,75,0.00,,---,0.00,VWS V14.00,2013-06-04 06:23:00,
2013-06-04 02:28:00,54.5,45.7,29.77,SW,226,0.0,1.0,72,0.00,,---,0.00,VWS V14.00,2013-06-04 06:28:00,
2013-06-04 02:33:00,54.4,46.7,29.78,SW,222,0.0,0.0,75,0.00,,---,0.00,VWS V14.00,2013-06-04 06:33:00,
2013-06-04 02:38:00,54.2,45.0,29.78,SW,229,0.0,1.0,71,0.00,,---,0.00,VWS V14.00,2013-06-04 06:38:00,
2013-06-04 02:43:00,54.2,45.4,29.78,SW,224,0.0,1.0,72,0.00,,---,0.00,VWS V14.00,2013-06-04 06:43:00,
2013-06-04 02:48:00,54.1,44.9,29.78,SW,227,0.0,1.0,71,0.00,,---,0.00,VWS V14.00,2013-06-04 06:48:00,
2013-06-04 02:53:00,53.9,45.1,29.78,SW,229,0.0,1.0,72,0.00,,---,0.00,VWS V14.00,2013-06-04 06:53:00,
2013-06-04 02:58:00,53.6,45.9,29.78,SW,230,0.0,1.0,75,0.00,,---,0.00,VWS V14.00,2013-06-04 06:58:00,
2013-06-04 03:03:00,53.5,45.4,29.79,WNW,299,0.0,0.0,74,0.00,,---,0.00,VWS V14.00,2013-06-04 07:03:00,
2013-06-04 03:08:00,53.5,45.8,29.79,WNW,295,0.0,0.0,75,0.00,,---,0.00,VWS V14.00,2013-06-04 07:08:00,
2013-06-04 03:13:00,53.5,45.8,29.79,WNW,301,0.0,0.0,75,0.00,,---,0.00,VWS V14.00,2013-06-04 07:13:00,
2013-06-04 03:18:00,53.5,45.4,29.79,WNW,298,0.0,0.0,74,0.00,,---,0.00,VWS V14.00,2013-06-04 07:18:00,
2013-06-04 03:23:00,53.6,43.7,29.79,NNW,329,0.0,1.0,69,0.00,,---,0.00,VWS V14.00,2013-06-04 07:23:00,
2013-06-04 03:28:00,53.9,45.1,29.79,North,0,0.0,2.0,72,0.00,,---,0.00,VWS V14.00,2013-06-04 07:28:00,
2013-06-04 03:33:00,53.9,43.6,29.79,North,3,0.0,0.0,68,0.00,,---,0.00,VWS V14.00,2013-06-04 07:33:00,
2013-06-04 03:38:00,53.8,43.1,29.79,North,3,0.0,1.0,67,0.00,,---,0.00,VWS V14.00,2013-06-04 07:38:00,
2013-06-04 03:43:00,53.6,43.3,29.79,North,3,0.0,1.0,68,0.00,,---,0.00,VWS V14.00,2013-06-04 07:43:00,
2013-06-04 03:48:00,53.5,43.6,29.79,North,3,0.0,1.0,69,0.00,,---,0.00,VWS V14.00,2013-06-04 07:48:00,
2013-06-04 03:53:00,53.1,44.7,29.79,North,3,0.0,1.0,73,0.00,,---,0.00,VWS V14.00,2013-06-04 07:53:00,
2013-06-04 03:58:00,52.6,44.2,29.79,North,3,0.0,1.0,73,0.00,,---,0.00,VWS V14.00,2013-06-04 07:58:00,
2013-06-04 04:03:00,52.3,42.8,29.79,North,3,0.0,0.0,70,0.00,,---,0.00,VWS V14.00,2013-06-04 08:03:00,
2013-06-04 04:08:00,52.2,42.3,29.79,North,3,0.0,0.0,69,0.00,,---,0.00,VWS V14.00,2013-06-04 08:08:00,
2013-06-04 04:13:00,51.9,43.2,29.79,North,3,0.0,0.0,72,0.00,,---,0.00,VWS V14.00,2013-06-04 08:13:00,
2013-06-04 04:18:00,51.7,42.6,29.79,North,3,0.0,0.0,71,0.00,,---,0.00,VWS V14.00,2013-06-04 08:18:00,
2013-06-04 04:23:00,51.4,42.3,29.79,North,3,0.0,0.0,71,0.00,,---,0.00,VWS V14.00,2013-06-04 08:23:00,
2013-06-04 04:28:00,51.1,42.0,29.79,North,3,0.0,0.0,71,0.00,,---,0.00,VWS V14.00,2013-06-04 08:28:00,
2013-06-04 04:33:00,50.8,41.8,29.79,North,3,0.0,0.0,71,0.00,,---,0.00,VWS V14.00,2013-06-04 08:33:00,
2013-06-04 04:38:00,50.7,42.0,29.79,North,3,0.0,0.0,72,0.00,,---,0.00,VWS V14.00,2013-06-04 08:38:00,
2013-06-04 04:43:00,50.4,41.7,29.79,North,3,0.0,0.0,72,0.00,,---,0.00,VWS V14.00,2013-06-04 08:43:00,
2013-06-04 04:48:00,50.2,43.3,29.80,North,3,0.0,0.0,77,0.00,,---,0.00,VWS V14.00,2013-06-04 08:48:00,
2013-06-04 04:53:00,49.9,43.3,29.80,North,3,0.0,0.0,78,0.00,,---,0.00,VWS V14.00,2013-06-04 08:53:00,
2013-06-04 04:58:00,49.6,43.0,29.80,North,3,0.0,0.0,78,0.00,,---,0.00,VWS V14.00,2013-06-04 08:58:00,
2013-06-04 05:03:00,49.5,43.3,29.80,North,3,0.0,0.0,79,0.00,,---,0.00,VWS V14.00,2013-06-04 09:03:00,
2013-06-04 05:08:00,49.4,43.5,29.80,North,3,0.0,0.0,80,0.00,,---,0.00,VWS V14.00,2013-06-04 09:08:00,
2013-06-04 05:13:00,49.2,42.3,29.80,North,3,0.0,1.0,77,0.00,,---,0.00,VWS V14.00,2013-06-04 09:13:00,
2013-06-04 05:18:00,49.2,42.0,29.80,North,3,0.0,1.0,76,0.00,,---,0.00,VWS V14.00,2013-06-04 09:18:00,
2013-06-04 05:23:00,49.2,42.0,29.80,North,3,0.0,1.0,76,0.00,,---,0.00,VWS V14.00,2013-06-04 09:23:00,
2013-06-04 05:28:00,49.1,41.9,29.80,North,3,0.0,1.0,76,0.00,,---,0.00,VWS V14.00,2013-06-04 09:28:00,
2013-06-04 05:33:00,49.1,41.9,29.81,North,3,0.0,0.0,76,0.00,,---,0.00,VWS V14.00,2013-06-04 09:33:00,
2013-06-04 05:38:00,48.9,42.0,29.81,North,3,0.0,0.0,77,0.00,,---,0.00,VWS V14.00,2013-06-04 09:38:00,
2013-06-04 05:43:00,48.9,42.7,29.81,North,3,0.0,0.0,79,0.00,,---,0.00,VWS V14.00,2013-06-04 09:43:00,
2013-06-04 05:48:00,48.8,42.9,29.81,North,3,0.0,0.0,80,0.00,,---,0.00,VWS V14.00,2013-06-04 09:48:00,
2013-06-04 05:53:00,48.8,42.3,29.81,North,3,0.0,0.0,78,0.00,,---,0.00,VWS V14.00,2013-06-04 09:53:00,
2013-06-04 05:58:00,48.8,42.3,29.81,North,3,0.0,0.0,78,0.00,,---,0.00,VWS V14.00,2013-06-04 09:58:00,
2013-06-04 06:03:00,48.8,41.9,29.82,North,3,0.0,0.0,77,0.00,,---,0.00,VWS V14.00,2013-06-04 10:03:00,
2013-06-04 06:08:00,48.9,42.3,29.82,North,3,0.0,0.0,78,0.00,,---,0.00,VWS V14.00,2013-06-04 10:08:00,
2013-06-04 06:13:00,49.1,43.8,29.82,North,3,0.0,0.0,82,0.00,,---,0.00,VWS V14.00,2013-06-04 10:13:00,
2013-06-04 06:18:00,49.2,44.6,29.82,NNE,18,0.0,0.0,84,0.00,,---,0.00,VWS V14.00,2013-06-04 10:18:00,
2013-06-04 06:23:00,49.2,44.9,29.82,NNW,344,0.0,0.0,85,0.00,,---,0.00,VWS V14.00,2013-06-04 10:23:00,
2013-06-04 06:28:00,49.2,44.6,29.82,NNW,344,0.0,0.0,84,0.00,,---,0.00,VWS V14.00,2013-06-04 10:28:00,
2013-06-04 06:33:00,49.4,45.1,29.82,NNW,343,0.0,0.0,85,0.00,,---,0.00,VWS V14.00,2013-06-04 10:33:00,
2013-06-04 06:38:00,49.6,45.6,29.82,NNW,343,0.0,0.0,86,0.00,,---,0.00,VWS V14.00,2013-06-04 10:38:00,
2013-06-04 06:43:00,49.8,45.5,29.82,NNW,343,0.0,0.0,85,0.00,,---,0.00,VWS V14.00,2013-06-04 10:43:00,
2013-06-04 06:48:00,49.9,45.3,29.83,NNW,342,0.0,0.0,84,0.00,,---,0.00,VWS V14.00,2013-06-04 10:48:00,
2013-06-04 06:53:00,50.2,45.2,29.83,WNW,292,0.0,0.0,83,0.00,,---,0.00,VWS V14.00,2013-06-04 10:53:00,
2013-06-04 06:58:00,50.5,44.2,29.83,WNW,294,0.0,1.0,79,0.00,,---,0.00,VWS V14.00,2013-06-04 10:58:00,
2013-06-04 07:03:00,51.0,44.4,29.83,WNW,291,0.0,0.0,78,0.00,,---,0.00,VWS V14.00,2013-06-04 11:03:00,
2013-06-04 07:08:00,51.3,44.3,29.83,WNW,292,0.0,0.0,77,0.00,,---,0.00,VWS V14.00,2013-06-04 11:08:00,
2013-06-04 07:14:00,51.7,44.0,29.83,WNW,298,0.0,1.0,75,0.00,,---,0.00,VWS V14.00,2013-06-04 11:14:00,
2013-06-04 07:19:00,52.0,44.0,29.83,North,10,0.0,1.0,74,0.00,,---,0.00,VWS V14.00,2013-06-04 11:19:00,
2013-06-04 07:24:00,52.8,44.0,29.83,WNW,301,0.0,2.0,72,0.00,,---,0.00,VWS V14.00,2013-06-04 11:24:00,
2013-06-04 07:29:00,53.1,44.3,29.83,West,265,0.0,2.0,72,0.00,,---,0.00,VWS V14.00,2013-06-04 11:29:00,
2013-06-04 07:34:00,53.5,44.7,29.83,West,264,0.0,1.0,72,0.00,,---,0.00,VWS V14.00,2013-06-04 11:34:00,
2013-06-04 07:39:00,53.6,44.1,29.83,WNW,285,0.0,1.0,70,0.00,,---,0.00,VWS V14.00,2013-06-04 11:39:00,
2013-06-04 07:44:00,54.1,44.2,29.83,NNW,333,0.0,1.0,69,0.00,,---,0.00,VWS V14.00,2013-06-04 11:44:00,
2013-06-04 07:49:00,54.5,43.8,29.83,North,0,0.0,4.0,67,0.00,,---,0.00,VWS V14.00,2013-06-04 11:49:00,
2013-06-04 07:54:00,55.1,44.0,29.83,NNW,346,0.0,4.0,66,0.00,,---,0.00,VWS V14.00,2013-06-04 11:54:00,
2013-06-04 07:59:00,55.4,44.2,29.83,NNW,344,0.0,4.0,66,0.00,,---,0.00,VWS V14.00,2013-06-04 11:59:00,
2013-06-04 08:04:00,55.9,42.7,29.83,NE,41,0.0,3.0,61,0.00,,---,0.00,VWS V14.00,2013-06-04 12:04:00,
2013-06-04 08:09:00,56.2,43.0,29.83,NE,41,0.0,6.0,61,0.00,,---,0.00,VWS V14.00,2013-06-04 12:09:00,
2013-06-04 08:14:00,56.5,43.2,29.83,North,359,0.0,8.0,61,0.00,,---,0.00,VWS V14.00,2013-06-04 12:14:00,
2013-06-04 08:19:00,56.7,43.0,29.83,North,1,2.0,8.0,60,0.00,,---,0.00,VWS V14.00,2013-06-04 12:19:00,
2013-06-04 08:24:00,57.0,43.3,29.83,North,3,1.0,8.0,60,0.00,,---,0.00,VWS V14.00,2013-06-04 12:24:00,
2013-06-04 08:29:00,57.6,42.5,29.83,NNW,333,0.0,8.0,57,0.00,,---,0.00,VWS V14.00,2013-06-04 12:29:00,
2013-06-04 08:34:00,58.1,43.9,29.84,SW,217,4.0,6.0,59,0.00,,---,0.00,VWS V14.00,2013-06-04 12:34:00,
2013-06-04 08:39:00,58.6,44.8,29.84,NNW,342,1.0,10.0,60,0.00,,---,0.00,VWS V14.00,2013-06-04 12:39:00,
2013-06-04 08:44:00,59.0,43.8,29.84,NNE,14,0.0,10.0,57,0.00,,---,0.00,VWS V14.00,2013-06-04 12:44:00,
2013-06-04 08:49:00,59.5,44.3,29.84,SW,229,2.0,10.0,57,0.00,,---,0.00,VWS V14.00,2013-06-04 12:49:00,
2013-06-04 08:54:00,59.9,44.7,29.84,North,354,1.0,10.0,57,0.00,,---,0.00,VWS V14.00,2013-06-04 12:54:00,
2013-06-04 08:59:00,60.1,43.4,29.84,North,354,3.0,10.0,54,0.00,,---,0.00,VWS V14.00,2013-06-04 12:59:00,
2013-06-04 09:04:00,60.1,44.4,29.84,NNE,13,0.0,1.0,56,0.00,,---,0.00,VWS V14.00,2013-06-04 13:04:00,
2013-06-04 09:09:00,60.2,43.5,29.84,WNW,291,0.0,7.0,54,0.00,,---,0.00,VWS V14.00,2013-06-04 13:09:00,
2013-06-04 09:14:00,60.4,44.2,29.84,WNW,282,2.0,8.0,55,0.00,,---,0.00,VWS V14.00,2013-06-04 13:14:00,
2013-06-04 09:19:00,60.4,43.7,29.84,NW,322,0.0,8.0,54,0.00,,---,0.00,VWS V14.00,2013-06-04 13:19:00,
2013-06-04 09:24:00,60.5,43.3,29.84,North,353,0.0,8.0,53,0.00,,---,0.00,VWS V14.00,2013-06-04 13:24:00,
2013-06-04 09:29:00,60.7,44.5,29.84,NNW,337,0.0,8.0,55,0.00,,---,0.00,VWS V14.00,2013-06-04 13:29:00,
2013-06-04 09:34:00,60.9,45.1,29.84,WSW,241,0.0,2.0,56,0.00,,---,0.00,VWS V14.00,2013-06-04 13:34:00,
2013-06-04 09:39:00,61.6,44.8,29.84,North,356,3.0,7.0,54,0.00,,---,0.00,VWS V14.00,2013-06-04 13:39:00,
2013-06-04 09:44:00,61.8,45.5,29.84,WSW,246,0.0,7.0,55,0.00,,---,0.00,VWS V14.00,2013-06-04 13:44:00,
2013-06-04 09:49:00,62.6,44.8,29.84,West,270,1.0,7.0,52,0.00,,---,0.00,VWS V14.00,2013-06-04 13:49:00,
2013-06-04 09:54:00,62.7,44.8,29.84,North,0,1.0,7.0,52,0.00,,---,0.00,VWS V14.00,2013-06-04 13:54:00,
2013-06-04 09:59:00,62.4,44.6,29.84,North,10,0.0,7.0,52,0.00,,---,0.00,VWS V14.00,2013-06-04 13:59:00,
2013-06-04 10:04:00,63.5,45.6,29.83,WNW,288,0.0,3.0,52,0.00,,---,0.00,VWS V14.00,2013-06-04 14:04:00,
2013-06-04 10:09:00,64.0,44.5,29.83,WNW,299,2.0,3.0,49,0.00,,---,0.00,VWS V14.00,2013-06-04 14:09:00,
2013-06-04 10:14:00,64.0,43.4,29.83,North,8,0.0,5.0,47,0.00,,---,0.00,VWS V14.00,2013-06-04 14:14:00,
2013-06-04 10:19:00,64.2,44.1,29.84,ENE,64,0.0,5.0,48,0.00,,---,0.00,VWS V14.00,2013-06-04 14:19:00,
2013-06-04 10:24:00,64.0,45.5,29.84,SSW,196,1.0,6.0,51,0.00,,---,0.00,VWS V14.00,2013-06-04 14:24:00,
2013-06-04 10:29:00,64.3,45.3,29.84,North,357,0.0,6.0,50,0.00,,---,0.00,VWS V14.00,2013-06-04 14:29:00,
2013-06-04 10:34:00,64.7,43.5,29.84,SW,224,0.0,5.0,46,0.00,,---,0.00,VWS V14.00,2013-06-04 14:34:00,
2013-06-04 10:39:00,65.6,46.0,29.84,West,281,0.0,5.0,49,0.00,,---,0.00,VWS V14.00,2013-06-04 14:39:00,
2013-06-04 10:44:00,65.8,43.3,29.84,North,356,2.0,5.0,44,0.00,,---,0.00,VWS V14.00,2013-06-04 14:44:00,
2013-06-04 10:49:00,65.0,42.6,29.85,NNW,343,0.0,7.0,44,0.00,,---,0.00,VWS V14.00,2013-06-04 14:49:00,
2013-06-04 10:54:00,65.5,45.8,29.85,SW,229,0.0,7.0,49,0.00,,---,0.00,VWS V14.00,2013-06-04 14:54:00,
2013-06-04 10:59:00,66.0,45.2,29.85,NNW,333,0.0,7.0,47,0.00,,---,0.00,VWS V14.00,2013-06-04 14:59:00,
2013-06-04 11:04:00,66.0,45.2,29.84,WSW,258,0.0,7.0,47,0.00,,---,0.00,VWS V14.00,2013-06-04 15:04:00,
2013-06-04 11:09:00,66.4,44.4,29.84,NW,325,0.0,7.0,45,0.00,,---,0.00,VWS V14.00,2013-06-04 15:09:00,
2013-06-04 11:14:00,66.6,44.0,29.84,NNE,27,0.0,7.0,44,0.00,,---,0.00,VWS V14.00,2013-06-04 15:14:00,
2013-06-04 11:19:00,66.4,44.4,29.85,West,277,1.0,7.0,45,0.00,,---,0.00,VWS V14.00,2013-06-04 15:19:00,
2013-06-04 11:24:00,66.8,44.8,29.85,NW,323,1.0,7.0,45,0.00,,---,0.00,VWS V14.00,2013-06-04 15:24:00,
2013-06-04 11:29:00,66.8,47.6,29.85,SW,230,0.0,7.0,50,0.00,,---,0.00,VWS V14.00,2013-06-04 15:29:00,
2013-06-04 11:34:00,67.4,44.8,29.85,NW,323,1.0,5.0,44,0.00,,---,0.00,VWS V14.00,2013-06-04 15:34:00,
2013-06-04 11:39:00,67.4,45.3,29.85,North,357,2.0,7.0,45,0.00,,---,0.00,VWS V14.00,2013-06-04 15:39:00,
2013-06-04 11:44:00,66.8,45.9,29.85,NNE,13,0.0,7.0,47,0.00,,---,0.00,VWS V14.00,2013-06-04 15:44:00,
2013-06-04 11:49:00,67.3,47.5,29.85,WSW,256,0.0,7.0,49,0.00,,---,0.00,VWS V14.00,2013-06-04 15:49:00,
2013-06-04 11:54:00,67.1,45.7,29.85,NNW,337,0.0,7.0,46,0.00,,---,0.00,VWS V14.00,2013-06-04 15:54:00,
2013-06-04 11:59:00,67.1,44.5,29.85,NW,325,0.0,7.0,44,0.00,,---,0.00,VWS V14.00,2013-06-04 15:59:00,
2013-06-04 12:04:00,66.3,44.3,29.85,North,352,0.0,3.0,45,0.00,,---,0.00,VWS V14.00,2013-06-04 16:04:00,
2013-06-04 12:09:00,66.6,44.0,29.85,SW,234,0.0,6.0,44,0.00,,---,0.00,VWS V14.00,2013-06-04 16:09:00,
2013-06-04 12:14:00,67.4,44.8,29.85,North,359,0.0,6.0,44,0.00,,---,0.00,VWS V14.00,2013-06-04 16:14:00,
2013-06-04 12:19:00,67.4,43.5,29.86,North,3,0.0,6.0,42,0.00,,---,0.00,VWS V14.00,2013-06-04 16:19:00,
2013-06-04 12:24:00,67.6,47.8,29.86,WNW,287,0.0,8.0,49,0.00,,---,0.00,VWS V14.00,2013-06-04 16:24:00,
2013-06-04 12:29:00,66.6,44.0,29.86,NNW,346,0.0,8.0,44,0.00,,---,0.00,VWS V14.00,2013-06-04 16:29:00,
2013-06-04 12:34:00,67.3,46.4,29.86,WNW,299,0.0,2.0,47,0.00,,---,0.00,VWS V14.00,2013-06-04 16:34:00,
2013-06-04 12:39:00,67.8,44.5,29.86,NW,304,0.0,11.0,43,0.00,,---,0.00,VWS V14.00,2013-06-04 16:39:00,
2013-06-04 12:44:00,67.3,47.0,29.86,South,175,0.0,11.0,48,0.00,,---,0.00,VWS V14.00,2013-06-04 16:44:00,
2013-06-04 12:49:00,68.1,47.1,29.86,SSE,162,2.0,11.0,47,0.00,,---,0.00,VWS V14.00,2013-06-04 16:49:00,
2013-06-04 12:54:00,68.9,46.1,29.86,NNE,27,1.0,11.0,44,0.00,,---,0.00,VWS V14.00,2013-06-04 16:54:00,
2013-06-04 12:59:00,69.3,44.0,29.86,North,7,1.0,11.0,40,0.00,,---,0.00,VWS V14.00,2013-06-04 16:59:00,
2013-06-04 13:04:00,68.3,45.6,29.85,NE,54,0.0,3.0,44,0.00,,---,0.00,VWS V14.00,2013-06-04 17:04:00,
2013-06-04 13:09:00,68.3,44.3,29.85,SW,220,1.0,6.0,42,0.00,,---,0.00,VWS V14.00,2013-06-04 17:09:00,
2013-06-04 13:14:00,68.8,46.0,29.85,South,182,0.0,6.0,44,0.00,,---,0.00,VWS V14.00,2013-06-04 17:14:00,
2013-06-04 13:20:00,68.6,44.6,29.85,North,352,3.0,7.0,42,0.00,,---,0.00,VWS V14.00,2013-06-04 17:20:00,
2013-06-04 13:25:00,67.9,44.0,29.85,SSW,208,1.0,12.0,42,0.00,,---,0.00,VWS V14.00,2013-06-04 17:25:00,
2013-06-04 13:30:00,68.3,46.2,29.85,North,353,0.0,12.0,45,0.00,,---,0.00,VWS V14.00,2013-06-04 17:30:00,
2013-06-04 13:35:00,68.6,45.8,29.85,NNW,344,1.0,2.0,44,0.00,,---,0.00,VWS V14.00,2013-06-04 17:35:00,
2013-06-04 13:40:00,68.3,45.0,29.85,WSW,250,0.0,3.0,43,0.00,,---,0.00,VWS V14.00,2013-06-04 17:40:00,
2013-06-04 13:45:00,68.1,47.1,29.85,NNW,329,0.0,3.0,47,0.00,,---,0.00,VWS V14.00,2013-06-04 17:45:00,
2013-06-04 13:50:00,68.8,46.6,29.85,NNW,329,0.0,3.0,45,0.00,,---,0.00,VWS V14.00,2013-06-04 17:50:00,
2013-06-04 13:55:00,68.6,45.2,29.85,NW,322,0.0,5.0,43,0.00,,---,0.00,VWS V14.00,2013-06-04 17:55:00,
2013-06-04 14:00:00,68.4,45.0,29.85,NNW,333,2.0,5.0,43,0.00,,---,0.00,VWS V14.00,2013-06-04 18:00:00,
2013-06-04 14:05:00,69.6,47.3,29.86,WNW,301,1.0,7.0,45,0.00,,---,0.00,VWS V14.00,2013-06-04 18:05:00,
2013-06-04 14:10:00,69.6,44.9,29.86,NNW,332,0.0,7.0,41,0.00,,---,0.00,VWS V14.00,2013-06-04 18:10:00,
2013-06-04 14:15:00,69.6,46.8,29.86,NNW,336,0.0,7.0,44,0.00,,---,0.00,VWS V14.00,2013-06-04 18:15:00,
2013-06-04 14:20:00,69.4,45.3,29.86,NNW,329,0.0,7.0,42,0.00,,---,0.00,VWS V14.00,2013-06-04 18:20:00,
2013-06-04 14:25:00,68.8,44.8,29.86,North,350,0.0,7.0,42,0.00,,---,0.00,VWS V14.00,2013-06-04 18:25:00,
2013-06-04 14:30:00,69.3,46.5,29.86,North,10,1.0,7.0,44,0.00,,---,0.00,VWS V14.00,2013-06-04 18:30:00,
2013-06-04 14:35:00,69.4,44.1,29.86,North,359,0.0,4.0,40,0.00,,---,0.00,VWS V14.00,2013-06-04 18:35:00,
2013-06-04 14:40:00,69.6,48.5,29.86,North,3,0.0,4.0,47,0.00,,---,0.00,VWS V14.00,2013-06-04 18:40:00,
2013-06-04 14:45:00,69.9,45.8,29.86,SW,216,0.0,6.0,42,0.00,,---,0.00,VWS V14.00,2013-06-04 18:45:00,
2013-06-04 14:50:00,70.1,48.4,29.86,SW,217,0.0,6.0,46,0.00,,---,0.00,VWS V14.00,2013-06-04 18:50:00,
2013-06-04 14:55:00,70.1,47.2,29.86,SSW,208,2.0,7.0,44,0.00,,---,0.00,VWS V14.00,2013-06-04 18:55:00,
2013-06-04 15:00:00,69.9,45.8,29.86,WNW,301,1.0,7.0,42,0.00,,---,0.00,VWS V14.00,2013-06-04 19:00:00,
2013-06-04 15:05:00,69.8,47.5,29.86,West,274,0.0,6.0,45,0.00,,---,0.00,VWS V14.00,2013-06-04 19:05:00,
2013-06-04 15:10:00,69.6,46.8,29.86,WNW,284,2.0,6.0,44,0.00,,---,0.00,VWS V14.00,2013-06-04 19:10:00,
2013-06-04 15:15:00,69.8,47.5,29.86,West,264,2.0,7.0,45,0.00,,---,0.00,VWS V14.00,2013-06-04 19:15:00,
2013-06-04 15:20:00,70.3,44.2,29.86,WSW,256,0.0,7.0,39,0.00,,---,0.00,VWS V14.00,2013-06-04 19:20:00,
2013-06-04 15:25:00,70.4,45.0,29.86,SE,133,0.0,7.0,40,0.00,,---,0.00,VWS V14.00,2013-06-04 19:25:00,
2013-06-04 15:30:00,70.9,47.3,29.86,WSW,253,0.0,7.0,43,0.00,,---,0.00,VWS V14.00,2013-06-04 19:30:00,
2013-06-04 15:35:00,70.3,44.2,29.86,West,265,0.0,3.0,39,0.00,,---,0.00,VWS V14.00,2013-06-04 19:35:00,
2013-06-04 15:40:00,71.1,45.6,29.86,SW,217,8.0,8.0,40,0.00,,---,0.00,VWS V14.00,2013-06-04 19:40:00,
2013-06-04 15:45:00,71.8,46.2,29.86,SW,233,0.0,11.0,40,0.00,,---,0.00,VWS V14.00,2013-06-04 19:45:00,
2013-06-04 15:50:00,71.6,44.0,29.86,West,270,1.0,11.0,37,0.00,,---,0.00,VWS V14.00,2013-06-04 19:50:00,
2013-06-04 15:55:00,71.5,44.6,29.86,SW,219,0.0,11.0,38,0.00,,---,0.00,VWS V14.00,2013-06-04 19:55:00,
2013-06-04 16:00:00,70.9,46.7,29.86,SSW,205,1.0,11.0,42,0.00,,---,0.00,VWS V14.00,2013-06-04 20:00:00,
2013-06-04 16:05:00,71.8,46.9,29.86,NNW,342,0.0,3.0,41,0.00,,---,0.00,VWS V14.00,2013-06-04 20:05:00,
2013-06-04 16:10:00,71.3,45.8,29.86,North,357,0.0,4.0,40,0.00,,---,0.00,VWS V14.00,2013-06-04 20:10:00,
2013-06-04 16:15:00,71.3,47.0,29.86,NW,323,0.0,4.0,42,0.00,,---,0.00,VWS V14.00,2013-06-04 20:15:00,
2013-06-04 16:20:00,72.3,45.3,29.86,NW,320,1.0,4.0,38,0.00,,---,0.00,VWS V14.00,2013-06-04 20:20:00,
2013-06-04 16:25:00,72.0,45.0,29.86,WSW,257,0.0,7.0,38,0.00,,---,0.00,VWS V14.00,2013-06-04 20:25:00,
2013-06-04 16:30:00,72.5,46.8,29.86,NW,311,2.0,7.0,40,0.00,,---,0.00,VWS V14.00,2013-06-04 20:30:00,
2013-06-04 16:35:00,72.5,46.2,29.86,WNW,301,0.0,6.0,39,0.00,,---,0.00,VWS V14.00,2013-06-04 20:35:00,
2013-06-04 16:40:00,72.8,45.7,29.86,West,274,0.0,6.0,38,0.00,,---,0.00,VWS V14.00,2013-06-04 20:40:00,
2013-06-04 16:45:00,72.5,44.8,29.86,NNW,347,0.0,8.0,37,0.00,,---,0.00,VWS V14.00,2013-06-04 20:45:00,
2013-06-04 16:50:00,72.5,47.5,29.85,East,100,3.0,8.0,41,0.00,,---,0.00,VWS V14.00,2013-06-04 20:50:00,
2013-06-04 16:55:00,72.8,46.4,29.85,WNW,287,0.0,10.0,39,0.00,,---,0.00,VWS V14.00,2013-06-04 20:55:00,
2013-06-04 17:00:00,73.0,47.3,29.85,West,263,0.0,10.0,40,0.00,,---,0.00,VWS V14.00,2013-06-04 21:00:00,
2013-06-04 17:05:00,72.7,46.3,29.86,ESE,120,1.0,3.0,39,0.00,,---,0.00,VWS V14.00,2013-06-04 21:05:00,
2013-06-04 17:10:00,72.5,45.5,29.86,East,100,3.0,7.0,38,0.00,,---,0.00,VWS V14.00,2013-06-04 21:10:00,
2013-06-04 17:15:00,71.8,44.8,29.86,SSE,158,1.0,7.0,38,0.00,,---,0.00,VWS V14.00,2013-06-04 21:15:00,
2013-06-04 17:20:00,71.6,44.0,29.86,NNW,344,1.0,7.0,37,0.00,,---,0.00,VWS V14.00,2013-06-04 21:20:00,
2013-06-04 17:26:00,71.1,44.2,29.86,WNW,289,1.0,7.0,38,0.00,,---,0.00,VWS V14.00,2013-06-04 21:26:00,
2013-06-04 17:31:00,71.1,46.2,29.86,NNW,335,0.0,7.0,41,0.00,,---,0.00,VWS V14.00,2013-06-04 21:31:00,
2013-06-04 17:36:00,71.1,44.9,29.86,NNW,346,0.0,5.0,39,0.00,,---,0.00,VWS V14.00,2013-06-04 21:36:00,
2013-06-04 17:41:00,71.6,44.7,29.86,North,356,0.0,5.0,38,0.00,,---,0.00,VWS V14.00,2013-06-04 21:41:00,
2013-06-04 17:46:00,71.6,45.4,29.86,SSE,165,0.0,5.0,39,0.00,,---,0.00,VWS V14.00,2013-06-04 21:46:00,
2013-06-04 17:51:00,71.3,45.1,29.86,NW,323,0.0,5.0,39,0.00,,---,0.00,VWS V14.00,2013-06-04 21:51:00,
2013-06-04 17:56:00,70.8,45.3,29.86,West,264,0.0,5.0,40,0.00,,---,0.00,VWS V14.00,2013-06-04 21:56:00,
2013-06-04 18:01:00,70.6,45.8,29.86,SW,227,0.0,5.0,41,0.00,,---,0.00,VWS V14.00,2013-06-04 22:01:00,
2013-06-04 18:06:00,70.6,46.4,29.86,SE,140,0.0,1.0,42,0.00,,---,0.00,VWS V14.00,2013-06-04 22:06:00,
2013-06-04 18:11:00,70.3,46.2,29.86,North,357,0.0,4.0,42,0.00,,---,0.00,VWS V14.00,2013-06-04 22:11:00,
2013-06-04 18:16:00,69.9,46.4,29.86,ESE,110,0.0,5.0,43,0.00,,---,0.00,VWS V14.00,2013-06-04 22:16:00,
2013-06-04 18:21:00,69.8,45.1,29.87,ESE,123,1.0,5.0,41,0.00,,---,0.00,VWS V14.00,2013-06-04 22:21:00,
2013-06-04 18:26:00,69.8,46.3,29.87,West,261,0.0,5.0,43,0.00,,---,0.00,VWS V14.00,2013-06-04 22:26:00,
2013-06-04 18:31:00,69.8,47.5,29.87,West,263,0.0,5.0,45,0.00,,---,0.00,VWS V14.00,2013-06-04 22:31:00,
2013-06-04 18:36:00,69.6,47.3,29.87,NNW,343,0.0,2.0,45,0.00,,---,0.00,VWS V14.00,2013-06-04 22:36:00,
2013-06-04 18:41:00,69.6,46.8,29.87,South,179,0.0,2.0,44,0.00,,---,0.00,VWS V14.00,2013-06-04 22:41:00,
2013-06-04 18:46:00,69.4,47.2,29.88,ESE,104,0.0,6.0,45,0.00,,---,0.00,VWS V14.00,2013-06-04 22:46:00,
2013-06-04 18:51:00,69.3,45.9,29.88,NNW,346,0.0,6.0,43,0.00,,---,0.00,VWS V14.00,2013-06-04 22:51:00,
2013-06-04 18:56:00,69.1,46.3,29.88,NNW,340,0.0,6.0,44,0.00,,---,0.00,VWS V14.00,2013-06-04 22:56:00,
2013-06-04 19:02:00,69.1,47.5,29.89,NNW,342,0.0,6.0,46,0.00,,---,0.00,VWS V14.00,2013-06-04 23:02:00,
2013-06-04 19:07:00,68.9,47.9,29.89,NNW,340,0.0,0.0,47,0.00,,---,0.00,VWS V14.00,2013-06-04 23:07:00,
2013-06-04 19:12:00,68.9,47.3,29.89,North,354,0.0,1.0,46,0.00,,---,0.00,VWS V14.00,2013-06-04 23:12:00,
2013-06-04 19:17:00,68.8,48.3,29.90,North,354,0.0,1.0,48,0.00,,---,0.00,VWS V14.00,2013-06-04 23:17:00,
2013-06-04 19:22:00,68.4,48.5,29.90,North,354,0.0,1.0,49,0.00,,---,0.00,VWS V14.00,2013-06-04 23:22:00,
2013-06-04 19:27:00,68.4,48.0,29.90,North,354,0.0,1.0,48,0.00,,---,0.00,VWS V14.00,2013-06-04 23:27:00,
2013-06-04 19:32:00,68.1,48.8,29.90,North,350,0.0,1.0,50,0.00,,---,0.00,VWS V14.00,2013-06-04 23:32:00,
2013-06-04 19:37:00,67.9,48.1,29.90,North,350,0.0,1.0,49,0.00,,---,0.00,VWS V14.00,2013-06-04 23:37:00,
2013-06-04 19:42:00,67.8,49.5,29.90,North,350,0.0,1.0,52,0.00,,---,0.00,VWS V14.00,2013-06-04 23:42:00,
2013-06-04 19:47:00,67.3,50.6,29.91,North,350,0.0,1.0,55,0.00,,---,0.00,VWS V14.00,2013-06-04 23:47:00,
2013-06-04 19:52:00,66.8,50.6,29.91,North,350,0.0,1.0,56,0.00,,---,0.00,VWS V14.00,2013-06-04 23:52:00,
2013-06-04 19:57:00,66.1,50.9,29.91,North,350,0.0,1.0,58,0.00,,---,0.00,VWS V14.00,2013-06-04 23:57:00,
2013-06-04 20:02:00,65.3,52.4,29.91,North,350,0.0,1.0,63,0.00,,---,0.00,VWS V14.00,2013-06-05 00:02:00,
2013-06-04 20:07:00,64.7,51.8,29.91,North,350,0.0,0.0,63,0.00,,---,0.00,VWS V14.00,2013-06-05 00:07:00,
2013-06-04 20:12:00,64.0,51.6,29.91,North,349,0.0,0.0,64,0.00,,---,0.00,VWS V14.00,2013-06-05 00:12:00,
2013-06-04 20:17:00,63.4,51.0,29.92,North,349,0.0,0.0,64,0.00,,---,0.00,VWS V14.00,2013-06-05 00:17:00,
2013-06-04 20:22:00,62.9,51.4,29.92,North,349,0.0,0.0,66,0.00,,---,0.00,VWS V14.00,2013-06-05 00:22:00,
2013-06-04 20:27:00,62.3,51.2,29.92,North,349,0.0,0.0,67,0.00,,---,0.00,VWS V14.00,2013-06-05 00:27:00,
2013-06-04 20:32:00,61.8,51.1,29.92,NNW,347,0.0,0.0,68,0.00,,---,0.00,VWS V14.00,2013-06-05 00:32:00,
2013-06-04 20:37:00,61.3,50.7,29.92,NNW,347,0.0,0.0,68,0.00,,---,0.00,VWS V14.00,2013-06-05 00:37:00,
2013-06-04 20:42:00,60.9,50.3,29.92,NNW,347,0.0,0.0,68,0.00,,---,0.00,VWS V14.00,2013-06-05 00:42:00,
2013-06-04 20:47:00,60.5,50.3,29.93,NNW,347,0.0,0.0,69,0.00,,---,0.00,VWS V14.00,2013-06-05 00:47:00,
2013-06-04 20:52:00,60.1,50.7,29.93,NNW,347,0.0,0.0,71,0.00,,---,0.00,VWS V14.00,2013-06-05 00:52:00,
2013-06-04 20:57:00,59.6,51.0,29.93,NNW,347,0.0,0.0,73,0.00,,---,0.00,VWS V14.00,2013-06-05 00:57:00,
2013-06-04 21:02:00,59.3,50.7,29.94,NNW,347,0.0,0.0,73,0.00,,---,0.00,VWS V14.00,2013-06-05 01:02:00,
2013-06-04 21:07:00,59.0,50.7,29.94,NNW,347,0.0,0.0,74,0.00,,---,0.00,VWS V14.00,2013-06-05 01:07:00,
2013-06-04 21:12:00,58.7,50.5,29.94,NNW,347,0.0,0.0,74,0.00,,---,0.00,VWS V14.00,2013-06-05 01:12:00,
2013-06-04 21:17:00,58.4,50.5,29.95,NNW,347,0.0,0.0,75,0.00,,---,0.00,VWS V14.00,2013-06-05 01:17:00,
2013-06-04 21:22:00,58.3,50.4,29.95,North,349,0.0,0.0,75,0.00,,---,0.00,VWS V14.00,2013-06-05 01:22:00,
2013-06-04 21:27:00,58.1,50.6,29.95,NNW,347,0.0,0.0,76,0.00,,---,0.00,VWS V14.00,2013-06-05 01:27:00,
2013-06-04 21:32:00,58.0,50.1,29.96,North,349,0.0,0.0,75,0.00,,---,0.00,VWS V14.00,2013-06-05 01:32:00,
2013-06-04 21:37:00,57.8,49.9,29.96,NNW,347,0.0,0.0,75,0.00,,---,0.00,VWS V14.00,2013-06-05 01:37:00,
2013-06-04 21:42:00,57.6,49.8,29.96,North,349,0.0,0.0,75,0.00,,---,0.00,VWS V14.00,2013-06-05 01:42:00,
2013-06-04 21:47:00,57.5,50.0,29.97,NNW,347,0.0,0.0,76,0.00,,---,0.00,VWS V14.00,2013-06-05 01:47:00,
2013-06-04 21:52:00,57.3,50.2,29.97,NNW,347,0.0,0.0,77,0.00,,---,0.00,VWS V14.00,2013-06-05 01:52:00,
2013-06-04 21:57:00,57.2,49.7,29.97,NNW,347,0.0,0.0,76,0.00,,---,0.00,VWS V14.00,2013-06-05 01:57:00,
2013-06-04 22:02:00,57.2,49.7,29.98,NNW,347,0.0,0.0,76,0.00,,---,0.00,VWS V14.00,2013-06-05 02:02:00,
2013-06-04 22:07:00,57.0,49.9,29.98,NNW,344,0.0,0.0,77,0.00,,---,0.00,VWS V14.00,2013-06-05 02:07:00,
2013-06-04 22:12:00,57.0,50.2,29.98,NNW,346,0.0,0.0,78,0.00,,---,0.00,VWS V14.00,2013-06-05 02:12:00,
2013-06-04 22:17:00,56.9,49.8,29.98,NNW,346,0.0,0.0,77,0.00,,---,0.00,VWS V14.00,2013-06-05 02:17:00,
2013-06-04 22:22:00,56.9,50.5,29.98,North,349,0.0,0.0,79,0.00,,---,0.00,VWS V14.00,2013-06-05 02:22:00,
2013-06-04 22:27:00,56.7,49.6,29.98,NNW,347,0.0,0.0,77,0.00,,---,0.00,VWS V14.00,2013-06-05 02:27:00,
2013-06-04 22:32:00,56.7,49.6,29.98,NNW,347,0.0,0.0,77,0.00,,---,0.00,VWS V14.00,2013-06-05 02:32:00,
2013-06-04 22:37:00,56.7,49.6,29.98,NNW,346,0.0,0.0,77,0.00,,---,0.00,VWS V14.00,2013-06-05 02:37:00,
2013-06-04 22:42:00,56.6,49.1,29.98,NNW,347,0.0,0.0,76,0.00,,---,0.00,VWS V14.00,2013-06-05 02:42:00,
2013-06-04 22:47:00,56.6,50.8,29.98,North,349,0.0,0.0,81,0.00,,---,0.00,VWS V14.00,2013-06-05 02:47:00,
2013-06-04 22:52:00,56.2,49.8,29.98,North,349,0.0,0.0,79,0.00,,---,0.00,VWS V14.00,2013-06-05 02:52:00,
2013-06-04 22:57:00,56.0,48.5,29.98,NNW,347,0.0,0.0,76,0.00,,---,0.00,VWS V14.00,2013-06-05 02:57:00,
2013-06-04 23:02:00,55.9,49.2,29.99,NNW,346,0.0,0.0,78,0.00,,---,0.00,VWS V14.00,2013-06-05 03:02:00,
2013-06-04 23:07:00,55.6,49.2,29.99,NNW,344,0.0,0.0,79,0.00,,---,0.00,VWS V14.00,2013-06-05 03:07:00,
2013-06-04 23:12:00,55.4,49.3,29.99,NNW,344,0.0,0.0,80,0.00,,---,0.00,VWS V14.00,2013-06-05 03:12:00,
2013-06-04 23:17:00,55.1,48.7,29.99,NNW,346,0.0,0.0,79,0.00,,---,0.00,VWS V14.00,2013-06-05 03:17:00,
2013-06-04 23:22:00,54.8,48.8,29.99,NNW,346,0.0,0.0,80,0.00,,---,0.00,VWS V14.00,2013-06-05 03:22:00,
2013-06-04 23:27:00,54.7,49.3,29.99,NNW,346,0.0,0.0,82,0.00,,---,0.00,VWS V14.00,2013-06-05 03:27:00,
2013-06-04 23:32:00,54.4,49.0,30.00,NNW,346,0.0,0.0,82,0.00,,---,0.00,VWS V14.00,2013-06-05 03:32:00,
2013-06-04 23:37:00,54.1,48.7,30.00,NNW,343,0.0,0.0,82,0.00,,---,0.00,VWS V14.00,2013-06-05 03:37:00,
2013-06-04 23:42:00,53.9,48.9,30.00,NNW,343,0.0,0.0,83,0.00,,---,0.00,VWS V14.00,2013-06-05 03:42:00,
2013-06-04 23:47:00,53.8,49.1,30.02,NNW,344,0.0,0.0,84,0.00,,---,0.00,VWS V14.00,2013-06-05 03:47:00,
2013-06-04 23:52:00,53.6,49.2,30.02,NNW,343,0.0,0.0,85,0.00,,---,0.00,VWS V14.00,2013-06-05 03:52:00,
2013-06-04 23:57:00,53.6,49.5,30.02,NNW,343,0.0,0.0,86,0.00,,---,0.00,VWS V14.00,2013-06-05 03:57:00,